createdAt,value
2022-08-22T00:01:44.348Z,3.70
2022-08-22T00:03:06.551Z,3.95
2022-08-22T00:03:11.473Z,4.55
2022-08-22T00:03:12.559Z,4.85
2022-08-22T00:05:06.230Z,3.90
2022-08-22T00:08:14.484Z,3.90
2022-08-22T00:11:18.294Z,3.88
2022-08-22T00:14:14.314Z,3.83
2022-08-22T00:17:13.679Z,3.53
2022-08-22T00:20:28.246Z,4.18
2022-08-22T00:23:25.846Z,3.70
2022-08-22T00:26:21.371Z,3.78
2022-08-22T00:29:12.135Z,3.65
2022-08-22T00:32:10.567Z,4.15
2022-08-22T00:35:02.517Z,3.75
2022-08-22T00:38:02.810Z,3.70
2022-08-22T00:40:48.096Z,3.60
2022-08-22T00:43:58.412Z,3.83
2022-08-22T00:47:57.550Z,3.95
2022-08-22T00:50:55.598Z,3.53
2022-08-22T00:54:01.068Z,3.83
2022-08-22T00:57:23.508Z,3.60
2022-08-22T01:00:16.891Z,3.40
2022-08-22T01:03:08.525Z,4.10
2022-08-22T01:06:31.339Z,3.58
2022-08-22T01:09:47.195Z,3.30
2022-08-22T01:13:00.761Z,4.28
2022-08-22T01:15:50.124Z,3.92
2022-08-22T01:18:56.540Z,3.75
2022-08-22T01:22:17.547Z,4.13
2022-08-22T01:25:29.405Z,3.67
2022-08-22T01:28:33.477Z,3.80
2022-08-22T01:32:06.313Z,3.70
2022-08-22T01:35:29.682Z,3.30
2022-08-22T01:38:59.674Z,3.97
2022-08-22T01:41:59.475Z,3.83
2022-08-22T01:45:12.388Z,3.47
2022-08-22T01:48:36.846Z,3.70
2022-08-22T01:51:28.262Z,4.00
2022-08-22T01:54:51.156Z,3.70
2022-08-22T01:57:55.746Z,3.80
2022-08-22T02:01:01.618Z,4.10
2022-08-22T02:04:10.840Z,4.35
2022-08-22T02:07:02.935Z,4.05
2022-08-22T02:10:04.455Z,4.18
2022-08-22T02:13:23.215Z,3.87
2022-08-22T02:16:20.547Z,3.90
2022-08-22T02:19:11.868Z,3.60
2022-08-22T02:22:04.599Z,3.90
2022-08-22T02:25:04.357Z,3.97
2022-08-22T02:28:06.084Z,3.60
2022-08-22T02:31:16.707Z,3.70
2022-08-22T02:34:17.339Z,3.85
2022-08-22T02:37:13.054Z,3.72
2022-08-22T02:40:27.402Z,3.88
2022-08-22T02:43:20.604Z,3.93
2022-08-22T02:46:23.087Z,4.00
2022-08-22T02:49:16.992Z,4.38
2022-08-22T02:52:25.745Z,4.45
2022-08-22T02:55:21.263Z,4.00
2022-08-22T02:58:57.035Z,4.10
2022-08-22T03:01:47.212Z,3.83
2022-08-22T03:04:32.407Z,4.35
2022-08-22T03:07:36.316Z,4.18
2022-08-22T03:10:30.114Z,4.30
2022-08-22T03:13:26.772Z,3.83
2022-08-22T03:16:40.243Z,4.30
2022-08-22T03:20:04.296Z,4.40
2022-08-22T03:23:09.774Z,4.03
2022-08-22T03:26:17.339Z,4.00
2022-08-22T03:29:33.187Z,4.20
2022-08-22T03:32:22.034Z,4.30
2022-08-22T03:35:21.528Z,4.60
2022-08-22T03:38:28.852Z,4.40
2022-08-22T03:41:39.193Z,4.80
2022-08-22T03:44:40.450Z,4.47
2022-08-22T03:47:44.376Z,5.03
2022-08-22T03:50:35.458Z,4.40
2022-08-22T03:53:23.951Z,4.40
2022-08-22T03:56:39.311Z,4.32
2022-08-22T03:59:49.626Z,3.47
2022-08-22T04:02:52.497Z,3.80
2022-08-22T04:06:02.493Z,3.70
2022-08-22T04:09:21.123Z,3.40
2022-08-22T04:12:27.497Z,3.50
2022-08-22T04:15:43.522Z,3.93
2022-08-22T04:18:49.909Z,3.78
2022-08-22T04:21:42.962Z,3.70
2022-08-22T04:24:52.046Z,3.80
2022-08-22T04:28:08.602Z,4.10
2022-08-22T04:31:14.273Z,3.90
2022-08-22T04:34:11.502Z,3.75
2022-08-22T04:37:05.445Z,5.03
2022-08-22T04:39:57.904Z,3.65
2022-08-22T04:42:58.947Z,3.65
2022-08-22T04:45:52.064Z,3.80
2022-08-22T04:49:10.636Z,4.05
2022-08-22T04:52:04.927Z,4.50
2022-08-22T04:55:19.787Z,4.28
2022-08-22T04:58:33.051Z,3.83
2022-08-22T05:01:25.603Z,4.13
2022-08-22T05:04:18.277Z,4.30
2022-08-22T05:07:22.905Z,4.47
2022-08-22T05:10:21.504Z,4.80
2022-08-22T05:13:15.116Z,4.35
2022-08-22T05:16:10.149Z,4.60
2022-08-22T05:19:01.236Z,4.32
2022-08-22T05:21:49.979Z,4.85
2022-08-22T05:24:48.481Z,4.50
2022-08-22T05:27:39.008Z,4.55
2022-08-22T05:30:31.300Z,4.07
2022-08-22T05:33:27.355Z,4.15
2022-08-22T05:36:19.305Z,4.80
2022-08-22T05:39:14.569Z,4.55
2022-08-22T05:42:02.368Z,4.63
2022-08-22T05:44:48.060Z,5.60
2022-08-22T05:47:45.547Z,5.30
2022-08-22T05:51:03.589Z,5.28
2022-08-22T05:53:56.022Z,4.50
2022-08-22T05:57:07.920Z,4.35
2022-08-22T06:00:00.973Z,4.17
2022-08-22T06:03:09.344Z,4.47
2022-08-22T06:05:58.601Z,5.38
2022-08-22T06:08:51.942Z,5.40
2022-08-22T06:11:52.491Z,4.85
2022-08-22T06:14:56.718Z,5.23
2022-08-22T06:17:47.189Z,4.68
2022-08-22T06:20:55.087Z,5.70
2022-08-22T06:23:49.929Z,5.57
2022-08-22T06:26:46.098Z,5.80
2022-08-22T06:29:45.587Z,5.40
2022-08-22T06:32:59.139Z,4.47
2022-08-22T06:36:03.229Z,4.63
2022-08-22T06:39:15.514Z,4.30
2022-08-22T06:42:05.318Z,4.65
2022-08-22T06:44:57.776Z,4.13
2022-08-22T06:47:50.173Z,4.07
2022-08-22T06:50:42.227Z,4.20
2022-08-22T06:53:38.169Z,3.80
2022-08-22T06:56:41.974Z,4.00
2022-08-22T06:59:30.273Z,4.27
2022-08-22T07:02:25.344Z,3.80
2022-08-22T07:05:18.005Z,3.80
2022-08-22T07:08:24.507Z,4.10
2022-08-22T07:11:21.815Z,4.07
2022-08-22T07:14:13.298Z,3.70
2022-08-22T07:17:01.978Z,3.60
2022-08-22T07:20:24.531Z,3.60
2022-08-22T07:23:13.059Z,3.63
2022-08-22T07:26:20.730Z,3.78
2022-08-22T07:29:17.144Z,3.40
2022-08-22T07:32:25.371Z,3.50
2022-08-22T07:35:16.185Z,3.58
2022-08-22T07:38:13.906Z,3.35
2022-08-22T07:41:09.882Z,3.55
2022-08-22T07:44:13.493Z,3.70
2022-08-22T07:47:07.072Z,3.42
2022-08-22T07:49:52.252Z,3.40
2022-08-22T07:52:44.563Z,3.42
2022-08-22T07:55:30.515Z,3.22
2022-08-22T07:58:16.697Z,3.63
2022-08-22T08:01:02.476Z,3.40
2022-08-22T08:03:54.846Z,3.35
2022-08-22T08:06:40.587Z,3.20
2022-08-22T08:09:32.923Z,3.35
2022-08-22T08:12:26.035Z,3.47
2022-08-22T08:15:17.303Z,3.20
2022-08-22T08:18:12.028Z,3.50
2022-08-22T08:21:03.520Z,3.35
2022-08-22T08:23:49.438Z,2.90
2022-08-22T08:27:02.212Z,3.00
2022-08-22T08:29:58.969Z,3.10
2022-08-22T08:32:50.866Z,3.30
2022-08-22T08:36:02.722Z,3.05
2022-08-22T08:39:18.794Z,3.10
2022-08-22T08:43:00.660Z,3.17
2022-08-22T08:46:07.491Z,3.30
2022-08-22T08:49:33.608Z,3.20
2022-08-22T08:52:49.070Z,3.10
2022-08-22T08:56:19.152Z,3.08
2022-08-22T08:59:23.008Z,2.80
2022-08-22T09:02:35.605Z,3.15
2022-08-22T09:06:01.158Z,3.30
2022-08-22T09:08:58.211Z,2.90
2022-08-22T09:11:51.462Z,3.20
2022-08-22T09:15:14.518Z,2.80
2022-08-22T09:18:38.156Z,3.20
2022-08-22T09:24:58.775Z,3.17
2022-08-22T09:28:02.848Z,2.95
2022-08-22T09:30:58.581Z,3.07
2022-08-22T09:34:07.227Z,2.83
2022-08-22T09:40:16.079Z,2.53
2022-08-22T09:43:21.146Z,3.08
2022-08-22T09:46:29.394Z,2.50
2022-08-22T09:49:40.445Z,2.90
2022-08-22T09:52:53.905Z,2.90
2022-08-22T09:55:54.355Z,2.70
2022-08-22T09:58:54.453Z,3.00
2022-08-22T10:02:00.433Z,2.67
2022-08-22T10:04:48.892Z,2.72
2022-08-22T10:08:06.445Z,2.80
2022-08-22T10:11:09.355Z,2.65
2022-08-22T10:14:05.547Z,2.70
2022-08-22T10:17:12.802Z,2.47
2022-08-22T10:20:10.395Z,2.60
2022-08-22T10:23:17.714Z,2.85
2022-08-22T10:26:22.678Z,2.50
2022-08-22T10:29:51.159Z,2.90
2022-08-22T10:32:43.657Z,2.30
2022-08-22T10:35:51.413Z,2.50
2022-08-22T10:38:54.786Z,2.72
2022-08-22T10:42:02.316Z,2.45
2022-08-22T10:45:16.502Z,2.47
2022-08-22T10:48:10.011Z,2.50
2022-08-22T10:51:08.929Z,2.70
2022-08-22T10:54:13.651Z,2.90
2022-08-22T10:57:14.289Z,2.67
2022-08-22T11:00:14.750Z,2.80
2022-08-22T11:03:25.476Z,2.43
2022-08-22T11:06:32.240Z,2.47
2022-08-22T11:09:30.291Z,2.70
2022-08-22T11:12:35.050Z,2.42
2022-08-22T11:15:51.378Z,2.60
2022-08-22T11:18:57.885Z,2.50
2022-08-22T11:21:54.355Z,2.35
2022-08-22T11:24:56.676Z,3.03
2022-08-22T11:27:51.661Z,2.45
2022-08-22T11:30:53.503Z,2.35
2022-08-22T11:34:06.975Z,2.13
2022-08-22T11:37:16.332Z,2.80
2022-08-22T11:40:21.616Z,2.60
2022-08-22T11:43:32.530Z,2.15
2022-08-22T11:46:27.202Z,2.42
2022-08-22T11:49:27.034Z,2.47
2022-08-22T11:52:22.569Z,2.22
2022-08-22T11:55:13.864Z,2.20
2022-08-22T11:58:19.747Z,2.08
2022-08-22T12:01:21.734Z,2.67
2022-08-22T12:04:06.751Z,2.40
2022-08-22T12:07:08.678Z,2.25
2022-08-22T12:10:05.021Z,2.47
2022-08-22T12:13:04.235Z,2.25
2022-08-22T12:16:05.711Z,2.15
2022-08-22T12:18:58.155Z,2.20
2022-08-22T12:22:21.042Z,1.90
2022-08-22T12:25:22.599Z,2.28
2022-08-22T12:28:29.175Z,2.10
2022-08-22T12:31:55.595Z,2.20
2022-08-22T12:35:13.529Z,1.70
2022-08-22T12:38:26.677Z,2.40
2022-08-22T12:41:46.740Z,2.13
2022-08-22T12:44:52.854Z,2.17
2022-08-22T12:48:02.365Z,2.15
2022-08-22T12:51:03.162Z,1.97
2022-08-22T12:54:39.767Z,2.08
2022-08-22T12:57:54.741Z,2.17
2022-08-22T13:00:44.737Z,1.80
2022-08-22T13:03:41.537Z,2.15
2022-08-22T13:06:42.143Z,2.37
2022-08-22T13:09:38.409Z,2.78
2022-08-22T13:12:33.224Z,3.15
2022-08-22T13:15:21.149Z,2.85
2022-08-22T13:18:29.740Z,3.70
2022-08-22T13:21:21.991Z,3.27
2022-08-22T13:24:16.892Z,3.60
2022-08-22T13:27:21.409Z,3.72
2022-08-22T13:30:16.211Z,4.15
2022-08-22T13:33:15.420Z,4.55
2022-08-22T13:36:04.735Z,4.60
2022-08-22T13:39:01.344Z,4.20
2022-08-22T13:41:53.759Z,4.72
2022-08-22T13:44:45.281Z,4.75
2022-08-22T13:47:34.712Z,4.60
2022-08-22T13:50:24.175Z,4.00
2022-08-22T13:53:37.324Z,4.68
2022-08-22T13:56:32.758Z,4.50
2022-08-22T13:59:47.482Z,5.00
2022-08-22T14:02:43.290Z,4.55
2022-08-22T14:05:35.074Z,4.43
2022-08-22T14:08:31.924Z,4.28
2022-08-22T14:11:25.278Z,4.88
2022-08-22T14:14:12.445Z,4.68
2022-08-22T14:17:00.343Z,4.75
2022-08-22T14:19:59.566Z,4.93
2022-08-22T14:23:14.223Z,4.35
2022-08-22T14:25:59.997Z,4.57
2022-08-22T14:28:46.876Z,4.57
2022-08-22T14:31:32.701Z,4.25
2022-08-22T14:34:19.611Z,4.27
2022-08-22T14:37:15.391Z,4.43
2022-08-22T14:40:07.966Z,4.63
2022-08-22T14:43:26.113Z,4.60
2022-08-22T14:46:18.475Z,4.47
2022-08-22T14:49:08.782Z,4.37
2022-08-22T14:52:10.895Z,4.20
2022-08-22T14:55:14.665Z,4.03
2022-08-22T14:58:05.919Z,4.13
2022-08-22T15:00:53.438Z,4.43
2022-08-22T15:03:40.742Z,4.17
2022-08-22T15:06:52.165Z,4.05
2022-08-22T15:09:48.992Z,4.45
2022-08-22T15:12:45.096Z,4.13
2022-08-22T15:15:53.406Z,3.95
2022-08-22T15:18:41.519Z,4.27
2022-08-22T15:21:41.309Z,3.90
2022-08-22T15:24:27.811Z,4.07
2022-08-22T15:27:20.694Z,3.70
2022-08-22T15:30:18.685Z,3.83
2022-08-22T15:33:26.309Z,3.30
2022-08-22T15:36:22.418Z,3.90
2022-08-22T15:39:27.845Z,3.40
2022-08-22T15:42:26.173Z,3.90
2022-08-22T15:45:38.967Z,3.90
2022-08-22T15:48:36.246Z,4.10
2022-08-22T15:51:37.742Z,3.58
2022-08-22T15:54:28.395Z,3.97
2022-08-22T15:57:41.801Z,3.63
2022-08-22T16:00:34.123Z,3.90
2022-08-22T16:03:29.797Z,4.20
2022-08-22T16:06:44.713Z,3.65
2022-08-22T16:09:49.074Z,3.60
2022-08-22T16:12:45.683Z,3.63
2022-08-22T16:15:54.159Z,3.83
2022-08-22T16:18:42.607Z,3.47
2022-08-22T16:21:27.969Z,3.20
2022-08-22T16:24:13.348Z,3.60
2022-08-22T16:26:59.095Z,3.38
2022-08-22T16:29:46.212Z,3.53
2022-08-22T16:32:32.429Z,3.57
2022-08-22T16:35:55.302Z,3.70
2022-08-22T16:38:44.097Z,3.33
2022-08-22T16:41:42.899Z,3.35
2022-08-22T16:44:28.185Z,3.60
2022-08-22T16:47:30.500Z,3.57
2022-08-22T16:50:16.056Z,3.20
2022-08-22T16:53:25.807Z,3.70
2022-08-22T16:56:28.680Z,3.17
2022-08-22T16:59:28.575Z,3.55
2022-08-22T17:02:33.044Z,3.23
2022-08-22T17:05:29.844Z,3.47
2022-08-22T17:08:18.342Z,3.08
2022-08-22T17:11:06.354Z,3.28
2022-08-22T17:13:55.726Z,3.30
2022-08-22T17:17:10.698Z,2.90
2022-08-22T17:19:58.936Z,3.40
2022-08-22T17:23:00.118Z,2.90
2022-08-22T17:26:20.125Z,2.70
2022-08-22T17:29:39.166Z,2.75
2022-08-22T17:32:57.215Z,2.67
2022-08-22T17:35:50.110Z,2.80
2022-08-22T17:38:50.354Z,2.80
2022-08-22T17:41:43.114Z,2.60
2022-08-22T17:44:58.162Z,6.75
2022-08-22T17:47:49.168Z,8.30
2022-08-22T17:50:54.723Z,7.78
2022-08-22T17:53:56.235Z,7.32
2022-08-22T17:57:05.290Z,5.65
2022-08-22T18:00:11.644Z,5.68
2022-08-22T18:03:06.377Z,5.50
2022-08-22T18:06:01.667Z,4.60
2022-08-22T18:12:22.338Z,9.10
2022-08-22T18:15:27.905Z,11.63
2022-08-22T18:18:20.248Z,9.07
2022-08-22T18:21:23.828Z,9.50
2022-08-22T18:24:12.337Z,7.80
2022-08-22T18:27:04.326Z,8.25
2022-08-22T18:29:55.740Z,7.57
2022-08-22T18:32:41.223Z,5.53
2022-08-22T18:35:42.401Z,5.68
2022-08-22T18:38:46.494Z,6.20
2022-08-22T18:41:57.983Z,5.45
2022-08-22T18:44:44.306Z,4.40
2022-08-22T18:47:33.084Z,4.00
2022-08-22T18:50:34.038Z,4.13
2022-08-22T18:53:44.185Z,4.20
2022-08-22T18:56:55.691Z,4.13
2022-08-22T19:00:16.659Z,4.25
2022-08-22T19:03:20.830Z,3.50
2022-08-22T19:06:13.670Z,3.40
2022-08-22T19:09:17.424Z,3.88
2022-08-22T19:12:21.723Z,2.70
2022-08-22T19:15:40.450Z,3.00
2022-08-22T19:18:50.547Z,3.17
2022-08-22T19:21:55.423Z,3.45
2022-08-22T19:25:14.787Z,3.20
2022-08-22T19:28:06.428Z,3.15
2022-08-22T19:31:16.404Z,3.30
2022-08-22T19:34:28.295Z,3.40
2022-08-22T19:37:33.106Z,3.10
2022-08-22T19:40:55.825Z,2.95
2022-08-22T19:43:44.251Z,3.28
2022-08-22T19:46:40.026Z,3.30
2022-08-22T19:49:33.449Z,3.23
2022-08-22T19:52:36.083Z,3.13
2022-08-22T19:55:39.521Z,2.72
2022-08-22T19:59:02.095Z,3.10
2022-08-22T20:02:25.157Z,3.20
2022-08-22T20:05:31.867Z,3.03
2022-08-22T20:08:41.736Z,2.90
2022-08-22T20:11:28.124Z,2.90
2022-08-22T20:14:37.145Z,2.70
2022-08-22T20:17:25.465Z,2.70
2022-08-22T20:20:35.827Z,3.03
2022-08-22T20:23:30.763Z,3.17
2022-08-22T20:26:15.934Z,3.00
2022-08-22T20:29:08.180Z,2.30
2022-08-22T20:31:58.485Z,2.30
2022-08-22T20:35:34.469Z,2.27
2022-08-22T20:38:24.527Z,3.28
2022-08-22T20:41:21.868Z,3.90
2022-08-22T20:44:13.992Z,3.88
2022-08-22T20:47:07.219Z,3.13
2022-08-22T20:50:01.792Z,2.10
2022-08-22T20:52:51.805Z,2.25
2022-08-22T20:55:39.964Z,2.20
2022-08-22T20:58:29.518Z,2.13
2022-08-22T21:01:15.681Z,2.10
2022-08-22T21:04:03.911Z,1.90
2022-08-22T21:07:01.435Z,2.00
2022-08-22T21:10:21.714Z,1.90
2022-08-22T21:13:11.413Z,1.90
2022-08-22T21:16:00.432Z,1.80
2022-08-22T21:18:48.492Z,2.00
2022-08-22T21:21:34.892Z,1.90
2022-08-22T21:24:20.337Z,2.40
2022-08-22T21:27:06.641Z,2.03
2022-08-22T21:29:52.177Z,2.05
2022-08-22T21:32:48.525Z,1.70
2022-08-22T21:35:35.380Z,1.88
2022-08-22T21:38:21.844Z,1.88
2022-08-22T21:41:07.067Z,1.90
2022-08-22T21:43:53.979Z,2.20
2022-08-22T21:46:39.253Z,1.87
2022-08-22T21:49:29.418Z,2.00
2022-08-22T21:52:26.744Z,2.10
2022-08-22T21:55:13.927Z,2.03
2022-08-22T21:58:03.939Z,2.15
2022-08-22T22:00:52.203Z,1.90
2022-08-22T22:03:38.614Z,1.80
2022-08-22T22:06:24.328Z,1.80
2022-08-22T22:09:15.081Z,1.85
2022-08-22T22:12:00.530Z,2.10
2022-08-22T22:14:49.300Z,1.83
2022-08-22T22:17:34.593Z,1.90
2022-08-22T22:20:22.142Z,2.10
2022-08-22T22:23:07.711Z,2.00
2022-08-22T22:25:57.874Z,2.47
2022-08-22T22:28:47.524Z,2.03
2022-08-22T22:31:33.059Z,2.10
2022-08-22T22:34:19.053Z,2.03
2022-08-22T22:37:05.377Z,2.00
2022-08-22T22:39:50.684Z,2.03
2022-08-22T22:42:35.855Z,2.10
2022-08-22T22:45:21.081Z,1.70
2022-08-22T22:48:07.387Z,2.08
2022-08-22T22:50:54.056Z,2.10
2022-08-22T22:53:43.036Z,1.75
2022-08-22T22:56:29.281Z,1.70
2022-08-22T22:59:14.698Z,2.10
2022-08-22T23:02:10.917Z,2.00
2022-08-22T23:04:56.859Z,1.80
2022-08-22T23:07:42.479Z,2.08
2022-08-22T23:10:29.815Z,2.03
2022-08-22T23:13:15.143Z,2.15
2022-08-22T23:16:06.640Z,1.92
2022-08-22T23:18:52.059Z,2.10
2022-08-22T23:21:38.203Z,2.50
2022-08-22T23:24:25.058Z,2.10
2022-08-22T23:27:11.156Z,2.00
2022-08-22T23:29:56.124Z,2.33
2022-08-22T23:32:41.610Z,2.08
2022-08-22T23:35:26.977Z,2.60
2022-08-22T23:38:12.043Z,1.90
2022-08-22T23:41:09.208Z,2.38
2022-08-22T23:43:55.675Z,2.17
2022-08-22T23:46:41.984Z,2.17
2022-08-22T23:49:28.506Z,2.22
2022-08-22T23:52:14.326Z,2.00
2022-08-22T23:54:59.763Z,2.08
2022-08-22T23:57:44.812Z,2.10
